sensor_id;sensor_type;location;lat;lon;timestamp;temperature;humidity
39875;DHT22;25547;52.530;13.194;2023-03-12T00:01:26;1.70;99.90
39875;DHT22;25547;52.530;13.194;2023-03-12T00:03:52;1.70;99.90
39875;DHT22;25547;52.530;13.194;2023-03-12T00:06:20;1.70;99.90
39875;DHT22;25547;52.530;13.194;2023-03-12T00:08:49;1.70;99.90
39875;DHT22;25547;52.530;13.194;2023-03-12T00:11:19;1.80;99.90
39875;DHT22;25547;52.530;13.194;2023-03-12T00:13:52;1.80;99.90
39875;DHT22;25547;52.530;13.194;2023-03-12T00:16:21;1.80;99.90
39875;DHT22;25547;52.530;13.194;2023-03-12T00:18:49;1.80;99.90
39875;DHT22;25547;52.530;13.194;2023-03-12T00:21:17;1.70;99.90
39875;DHT22;25547;52.530;13.194;2023-03-12T00:23:46;1.80;99.90
39875;DHT22;25547;52.530;13.194;2023-03-12T00:26:15;1.80;99.90
39875;DHT22;25547;52.530;13.194;2023-03-12T00:28:41;1.70;99.90
39875;DHT22;25547;52.530;13.194;2023-03-12T00:31:18;1.70;99.90
39875;DHT22;25547;52.530;13.194;2023-03-12T00:33:47;1.70;99.90
39875;DHT22;25547;52.530;13.194;2023-03-12T00:36:21;1.70;99.90
39875;DHT22;25547;52.530;13.194;2023-03-12T00:38:50;1.80;99.90
39875;DHT22;25547;52.530;13.194;2023-03-12T00:41:16;1.80;99.90
39875;DHT22;25547;52.530;13.194;2023-03-12T00:43:43;1.80;99.90
39875;DHT22;25547;52.530;13.194;2023-03-12T00:46:14;1.80;99.90
39875;DHT22;25547;52.530;13.194;2023-03-12T00:48:42;1.90;99.90
39875;DHT22;25547;52.530;13.194;2023-03-12T00:51:08;1.90;99.90
39875;DHT22;25547;52.530;13.194;2023-03-12T00:53:35;2.00;99.90
39875;DHT22;25547;52.530;13.194;2023-03-12T00:56:03;2.10;99.90
39875;DHT22;25547;52.530;13.194;2023-03-12T00:58:32;2.10;99.90
39875;DHT22;25547;52.530;13.194;2023-03-12T01:00:57;2.10;99.90
39875;DHT22;25547;52.530;13.194;2023-03-12T01:03:23;2.20;99.90
39875;DHT22;25547;52.530;13.194;2023-03-12T01:05:49;2.20;99.90
39875;DHT22;25547;52.530;13.194;2023-03-12T01:08:22;2.30;99.90
39875;DHT22;25547;52.530;13.194;2023-03-12T01:10:48;2.30;99.90
39875;DHT22;25547;52.530;13.194;2023-03-12T01:13:16;2.20;99.90
39875;DHT22;25547;52.530;13.194;2023-03-12T01:15:44;2.20;99.90
39875;DHT22;25547;52.530;13.194;2023-03-12T01:18:09;2.30;99.90
39875;DHT22;25547;52.530;13.194;2023-03-12T01:20:35;2.20;99.90
39875;DHT22;25547;52.530;13.194;2023-03-12T01:23:01;2.10;99.90
39875;DHT22;25547;52.530;13.194;2023-03-12T01:25:29;2.00;99.90
39875;DHT22;25547;52.530;13.194;2023-03-12T01:27:55;1.90;99.90
39875;DHT22;25547;52.530;13.194;2023-03-12T01:30:20;1.90;99.90
39875;DHT22;25547;52.530;13.194;2023-03-12T01:32:48;1.90;99.90
39875;DHT22;25547;52.530;13.194;2023-03-12T01:35:18;1.80;99.90
39875;DHT22;25547;52.530;13.194;2023-03-12T01:37:44;1.80;99.90
39875;DHT22;25547;52.530;13.194;2023-03-12T01:40:17;1.80;99.90
39875;DHT22;25547;52.530;13.194;2023-03-12T01:42:54;1.90;99.90
39875;DHT22;25547;52.530;13.194;2023-03-12T01:48:39;2.00;99.90
39875;DHT22;25547;52.530;13.194;2023-03-12T01:51:11;2.00;99.90
39875;DHT22;25547;52.530;13.194;2023-03-12T01:53:42;2.10;99.90
39875;DHT22;25547;52.530;13.194;2023-03-12T01:56:10;2.10;99.90
39875;DHT22;25547;52.530;13.194;2023-03-12T01:58:38;2.10;99.90
39875;DHT22;25547;52.530;13.194;2023-03-12T02:01:05;2.10;99.90
39875;DHT22;25547;52.530;13.194;2023-03-12T02:03:32;2.10;99.90
39875;DHT22;25547;52.530;13.194;2023-03-12T02:06:02;2.10;99.90
39875;DHT22;25547;52.530;13.194;2023-03-12T02:08:37;2.10;99.90
39875;DHT22;25547;52.530;13.194;2023-03-12T02:11:04;2.10;99.90
39875;DHT22;25547;52.530;13.194;2023-03-12T02:13:30;2.10;99.90
39875;DHT22;25547;52.530;13.194;2023-03-12T02:15:55;2.10;99.90
39875;DHT22;25547;52.530;13.194;2023-03-12T02:18:21;2.00;99.90
39875;DHT22;25547;52.530;13.194;2023-03-12T02:23:56;1.90;99.90
39875;DHT22;25547;52.530;13.194;2023-03-12T02:26:28;1.90;99.90
39875;DHT22;25547;52.530;13.194;2023-03-12T02:28:55;1.90;99.90
39875;DHT22;25547;52.530;13.194;2023-03-12T02:31:25;1.90;99.90
39875;DHT22;25547;52.530;13.194;2023-03-12T02:33:54;1.70;99.90
39875;DHT22;25547;52.530;13.194;2023-03-12T02:36:21;1.80;99.90
39875;DHT22;25547;52.530;13.194;2023-03-12T02:38:48;1.80;99.90
39875;DHT22;25547;52.530;13.194;2023-03-12T02:41:23;1.70;99.90
39875;DHT22;25547;52.530;13.194;2023-03-12T02:44:16;1.70;99.90
39875;DHT22;25547;52.530;13.194;2023-03-12T02:46:46;1.70;99.90
39875;DHT22;25547;52.530;13.194;2023-03-12T02:49:16;1.60;99.90
39875;DHT22;25547;52.530;13.194;2023-03-12T02:51:45;1.60;99.90
39875;DHT22;25547;52.530;13.194;2023-03-12T02:54:14;1.60;99.90
39875;DHT22;25547;52.530;13.194;2023-03-12T02:56:43;1.60;99.90
39875;DHT22;25547;52.530;13.194;2023-03-12T02:59:14;1.50;99.90
39875;DHT22;25547;52.530;13.194;2023-03-12T03:01:40;1.40;99.90
39875;DHT22;25547;52.530;13.194;2023-03-12T03:04:08;1.40;99.90
39875;DHT22;25547;52.530;13.194;2023-03-12T03:06:39;1.40;99.90
39875;DHT22;25547;52.530;13.194;2023-03-12T03:09:05;1.40;99.90
39875;DHT22;25547;52.530;13.194;2023-03-12T03:11:31;1.50;99.90
39875;DHT22;25547;52.530;13.194;2023-03-12T03:13:56;1.40;99.90
39875;DHT22;25547;52.530;13.194;2023-03-12T03:16:24;1.40;99.90
39875;DHT22;25547;52.530;13.194;2023-03-12T03:18:50;1.30;99.90
39875;DHT22;25547;52.530;13.194;2023-03-12T03:21:18;1.30;99.90
39875;DHT22;25547;52.530;13.194;2023-03-12T03:23:47;1.30;99.90
39875;DHT22;25547;52.530;13.194;2023-03-12T03:26:14;1.30;99.90
39875;DHT22;25547;52.530;13.194;2023-03-12T03:28:40;1.30;99.90
39875;DHT22;25547;52.530;13.194;2023-03-12T03:31:06;1.20;99.90
39875;DHT22;25547;52.530;13.194;2023-03-12T03:33:34;1.30;99.90
39875;DHT22;25547;52.530;13.194;2023-03-12T03:36:01;1.30;99.90
39875;DHT22;25547;52.530;13.194;2023-03-12T03:38:28;1.30;99.90
39875;DHT22;25547;52.530;13.194;2023-03-12T03:40:56;1.30;99.90
39875;DHT22;25547;52.530;13.194;2023-03-12T03:43:22;1.30;99.90
39875;DHT22;25547;52.530;13.194;2023-03-12T03:45:48;1.30;99.90
39875;DHT22;25547;52.530;13.194;2023-03-12T03:48:22;1.40;99.90
39875;DHT22;25547;52.530;13.194;2023-03-12T03:50:48;1.30;99.90
39875;DHT22;25547;52.530;13.194;2023-03-12T03:53:13;1.30;99.90
39875;DHT22;25547;52.530;13.194;2023-03-12T03:55:44;1.30;99.90
39875;DHT22;25547;52.530;13.194;2023-03-12T03:58:12;1.30;99.90
39875;DHT22;25547;52.530;13.194;2023-03-12T04:00:38;1.30;99.90
39875;DHT22;25547;52.530;13.194;2023-03-12T04:03:04;1.20;99.90
39875;DHT22;25547;52.530;13.194;2023-03-12T04:05:30;1.20;99.90
39875;DHT22;25547;52.530;13.194;2023-03-12T04:07:56;1.20;99.90
39875;DHT22;25547;52.530;13.194;2023-03-12T04:10:27;1.20;99.90
39875;DHT22;25547;52.530;13.194;2023-03-12T04:12:53;1.10;99.90
39875;DHT22;25547;52.530;13.194;2023-03-12T04:15:19;1.10;99.90
39875;DHT22;25547;52.530;13.194;2023-03-12T04:17:45;1.10;99.90
39875;DHT22;25547;52.530;13.194;2023-03-12T04:20:11;1.10;99.90
39875;DHT22;25547;52.530;13.194;2023-03-12T04:22:39;1.10;99.90
39875;DHT22;25547;52.530;13.194;2023-03-12T04:25:07;1.10;99.90
39875;DHT22;25547;52.530;13.194;2023-03-12T04:27:33;1.10;99.90
39875;DHT22;25547;52.530;13.194;2023-03-12T04:29:59;1.10;99.90
39875;DHT22;25547;52.530;13.194;2023-03-12T04:32:25;1.10;99.90
39875;DHT22;25547;52.530;13.194;2023-03-12T04:34:50;1.00;99.90
39875;DHT22;25547;52.530;13.194;2023-03-12T04:37:18;1.10;99.90
39875;DHT22;25547;52.530;13.194;2023-03-12T04:39:44;1.10;99.90
39875;DHT22;25547;52.530;13.194;2023-03-12T04:42:10;1.00;99.90
39875;DHT22;25547;52.530;13.194;2023-03-12T04:44:38;1.00;99.90
39875;DHT22;25547;52.530;13.194;2023-03-12T04:47:10;1.00;99.90
39875;DHT22;25547;52.530;13.194;2023-03-12T04:49:38;1.10;99.90
39875;DHT22;25547;52.530;13.194;2023-03-12T04:52:04;1.00;99.90
39875;DHT22;25547;52.530;13.194;2023-03-12T04:54:30;1.00;99.90
39875;DHT22;25547;52.530;13.194;2023-03-12T04:56:56;1.00;99.90
39875;DHT22;25547;52.530;13.194;2023-03-12T04:59:24;1.00;99.90
39875;DHT22;25547;52.530;13.194;2023-03-12T05:01:52;0.90;99.90
39875;DHT22;25547;52.530;13.194;2023-03-12T05:04:17;0.90;99.90
39875;DHT22;25547;52.530;13.194;2023-03-12T05:06:43;0.80;99.90
39875;DHT22;25547;52.530;13.194;2023-03-12T05:09:08;0.90;99.90
39875;DHT22;25547;52.530;13.194;2023-03-12T05:11:34;1.00;99.90
39875;DHT22;25547;52.530;13.194;2023-03-12T05:14:02;0.80;99.90
39875;DHT22;25547;52.530;13.194;2023-03-12T05:16:30;0.80;99.90
39875;DHT22;25547;52.530;13.194;2023-03-12T05:18:58;0.70;99.90
39875;DHT22;25547;52.530;13.194;2023-03-12T05:21:23;0.70;99.90
39875;DHT22;25547;52.530;13.194;2023-03-12T05:23:51;0.70;99.90
39875;DHT22;25547;52.530;13.194;2023-03-12T05:26:26;0.60;99.90
39875;DHT22;25547;52.530;13.194;2023-03-12T05:28:52;0.60;99.90
39875;DHT22;25547;52.530;13.194;2023-03-12T05:31:20;0.70;99.90
39875;DHT22;25547;52.530;13.194;2023-03-12T05:33:46;0.60;99.90
39875;DHT22;25547;52.530;13.194;2023-03-12T05:36:12;0.50;99.90
39875;DHT22;25547;52.530;13.194;2023-03-12T05:38:41;0.50;99.90
39875;DHT22;25547;52.530;13.194;2023-03-12T05:41:16;0.50;99.90
39875;DHT22;25547;52.530;13.194;2023-03-12T05:43:42;0.40;99.90
39875;DHT22;25547;52.530;13.194;2023-03-12T05:46:08;0.40;99.90
39875;DHT22;25547;52.530;13.194;2023-03-12T05:48:34;0.40;99.90
39875;DHT22;25547;52.530;13.194;2023-03-12T05:51:00;0.40;99.90
39875;DHT22;25547;52.530;13.194;2023-03-12T05:53:28;0.50;99.90
39875;DHT22;25547;52.530;13.194;2023-03-12T05:56:00;0.60;99.90
39875;DHT22;25547;52.530;13.194;2023-03-12T05:58:28;0.60;99.90
39875;DHT22;25547;52.530;13.194;2023-03-12T06:00:56;0.60;99.90
39875;DHT22;25547;52.530;13.194;2023-03-12T06:03:22;0.60;99.90
39875;DHT22;25547;52.530;13.194;2023-03-12T06:05:48;0.70;99.90
39875;DHT22;25547;52.530;13.194;2023-03-12T06:08:13;0.80;99.90
39875;DHT22;25547;52.530;13.194;2023-03-12T06:10:42;0.80;99.90
39875;DHT22;25547;52.530;13.194;2023-03-12T06:13:07;0.60;99.90
39875;DHT22;25547;52.530;13.194;2023-03-12T06:15:33;0.60;99.90
39875;DHT22;25547;52.530;13.194;2023-03-12T06:17:59;0.60;99.90
39875;DHT22;25547;52.530;13.194;2023-03-12T06:20:27;0.70;99.90
39875;DHT22;25547;52.530;13.194;2023-03-12T06:22:52;0.70;99.90
39875;DHT22;25547;52.530;13.194;2023-03-12T06:25:18;0.80;99.90
39875;DHT22;25547;52.530;13.194;2023-03-12T06:27:46;0.80;99.90
39875;DHT22;25547;52.530;13.194;2023-03-12T06:30:12;0.90;99.90
39875;DHT22;25547;52.530;13.194;2023-03-12T06:32:38;0.80;99.90
39875;DHT22;25547;52.530;13.194;2023-03-12T06:35:04;0.80;99.90
39875;DHT22;25547;52.530;13.194;2023-03-12T06:37:30;0.90;99.90
39875;DHT22;25547;52.530;13.194;2023-03-12T06:39:58;0.90;99.90
39875;DHT22;25547;52.530;13.194;2023-03-12T06:42:24;1.00;99.90
39875;DHT22;25547;52.530;13.194;2023-03-12T06:44:52;1.10;99.90
39875;DHT22;25547;52.530;13.194;2023-03-12T06:47:21;1.10;99.90
39875;DHT22;25547;52.530;13.194;2023-03-12T06:49:51;1.30;99.90
39875;DHT22;25547;52.530;13.194;2023-03-12T06:52:16;1.40;99.90
39875;DHT22;25547;52.530;13.194;2023-03-12T06:54:42;1.30;99.90
39875;DHT22;25547;52.530;13.194;2023-03-12T06:57:08;1.40;99.90
39875;DHT22;25547;52.530;13.194;2023-03-12T06:59:39;1.60;99.90
39875;DHT22;25547;52.530;13.194;2023-03-12T07:02:11;1.80;99.90
39875;DHT22;25547;52.530;13.194;2023-03-12T07:04:39;2.10;99.90
39875;DHT22;25547;52.530;13.194;2023-03-12T07:07:04;2.00;99.90
39875;DHT22;25547;52.530;13.194;2023-03-12T07:09:35;2.10;99.90
39875;DHT22;25547;52.530;13.194;2023-03-12T07:12:04;2.30;99.90
39875;DHT22;25547;52.530;13.194;2023-03-12T07:14:30;2.40;99.90
39875;DHT22;25547;52.530;13.194;2023-03-12T07:16:58;2.30;99.90
39875;DHT22;25547;52.530;13.194;2023-03-12T07:19:26;2.40;99.90
39875;DHT22;25547;52.530;13.194;2023-03-12T07:21:55;2.30;99.90
39875;DHT22;25547;52.530;13.194;2023-03-12T07:24:21;2.40;99.90
39875;DHT22;25547;52.530;13.194;2023-03-12T07:26:47;2.70;99.90
39875;DHT22;25547;52.530;13.194;2023-03-12T07:29:13;2.90;99.90
39875;DHT22;25547;52.530;13.194;2023-03-12T07:31:38;2.90;99.90
39875;DHT22;25547;52.530;13.194;2023-03-12T07:34:04;2.80;99.90
39875;DHT22;25547;52.530;13.194;2023-03-12T07:36:33;2.60;99.90
39875;DHT22;25547;52.530;13.194;2023-03-12T07:38:58;2.60;99.90
39875;DHT22;25547;52.530;13.194;2023-03-12T07:41:24;2.70;99.90
39875;DHT22;25547;52.530;13.194;2023-03-12T07:43:52;2.90;99.90
39875;DHT22;25547;52.530;13.194;2023-03-12T07:46:17;3.40;99.90
39875;DHT22;25547;52.530;13.194;2023-03-12T07:48:45;3.70;99.90
39875;DHT22;25547;52.530;13.194;2023-03-12T07:51:11;3.80;99.90
39875;DHT22;25547;52.530;13.194;2023-03-12T07:53:36;3.90;99.90
39875;DHT22;25547;52.530;13.194;2023-03-12T07:56:05;4.20;99.90
39875;DHT22;25547;52.530;13.194;2023-03-12T07:58:30;4.70;99.90
39875;DHT22;25547;52.530;13.194;2023-03-12T08:00:56;5.70;99.90
39875;DHT22;25547;52.530;13.194;2023-03-12T08:03:22;6.30;99.90
39875;DHT22;25547;52.530;13.194;2023-03-12T08:05:59;6.70;98.40
39875;DHT22;25547;52.530;13.194;2023-03-12T08:08:26;7.90;95.80
39875;DHT22;25547;52.530;13.194;2023-03-12T08:10:54;9.50;92.10
39875;DHT22;25547;52.530;13.194;2023-03-12T08:13:20;11.90;79.90
39875;DHT22;25547;52.530;13.194;2023-03-12T08:15:50;12.30;71.10
39875;DHT22;25547;52.530;13.194;2023-03-12T08:18:16;12.70;67.60
39875;DHT22;25547;52.530;13.194;2023-03-12T08:20:43;13.50;65.90
39875;DHT22;25547;52.530;13.194;2023-03-12T08:23:09;14.80;61.50
39875;DHT22;25547;52.530;13.194;2023-03-12T08:25:35;15.00;58.20
39875;DHT22;25547;52.530;13.194;2023-03-12T08:28:02;14.40;57.90
39875;DHT22;25547;52.530;13.194;2023-03-12T08:30:30;14.10;57.10
39875;DHT22;25547;52.530;13.194;2023-03-12T08:32:58;16.20;56.30
39875;DHT22;25547;52.530;13.194;2023-03-12T08:35:24;15.60;54.80
39875;DHT22;25547;52.530;13.194;2023-03-12T08:37:52;15.80;55.00
39875;DHT22;25547;52.530;13.194;2023-03-12T08:40:20;15.40;55.10
39875;DHT22;25547;52.530;13.194;2023-03-12T08:42:48;14.30;56.90
39875;DHT22;25547;52.530;13.194;2023-03-12T08:45:14;14.00;58.20
39875;DHT22;25547;52.530;13.194;2023-03-12T08:47:42;13.10;58.10
39875;DHT22;25547;52.530;13.194;2023-03-12T08:50:10;12.00;61.60
39875;DHT22;25547;52.530;13.194;2023-03-12T08:52:39;10.90;64.90
39875;DHT22;25547;52.530;13.194;2023-03-12T08:55:05;9.50;69.10
39875;DHT22;25547;52.530;13.194;2023-03-12T08:57:31;9.10;72.00
39875;DHT22;25547;52.530;13.194;2023-03-12T08:59:56;8.70;73.60
39875;DHT22;25547;52.530;13.194;2023-03-12T09:02:25;9.40;74.10
39875;DHT22;25547;52.530;13.194;2023-03-12T09:04:51;11.50;70.00
39875;DHT22;25547;52.530;13.194;2023-03-12T09:07:16;15.10;62.30
39875;DHT22;25547;52.530;13.194;2023-03-12T09:09:46;15.90;55.10
39875;DHT22;25547;52.530;13.194;2023-03-12T09:12:12;17.10;53.60
39875;DHT22;25547;52.530;13.194;2023-03-12T09:14:38;18.50;51.50
39875;DHT22;25547;52.530;13.194;2023-03-12T09:17:03;15.60;52.00
39875;DHT22;25547;52.530;13.194;2023-03-12T09:19:29;14.00;55.90
39875;DHT22;25547;52.530;13.194;2023-03-12T09:21:57;12.30;61.60
39875;DHT22;25547;52.530;13.194;2023-03-12T09:24:23;10.80;65.70
39875;DHT22;25547;52.530;13.194;2023-03-12T09:26:49;10.10;68.00
39875;DHT22;25547;52.530;13.194;2023-03-12T09:29:17;9.10;69.90
39875;DHT22;25547;52.530;13.194;2023-03-12T09:31:43;8.80;73.80
39875;DHT22;25547;52.530;13.194;2023-03-12T09:34:08;9.10;73.30
39875;DHT22;25547;52.530;13.194;2023-03-12T09:36:34;8.50;73.50
39875;DHT22;25547;52.530;13.194;2023-03-12T09:39:00;8.50;74.90
39875;DHT22;25547;52.530;13.194;2023-03-12T09:41:29;8.10;76.00
39875;DHT22;25547;52.530;13.194;2023-03-12T09:43:56;7.70;76.20
39875;DHT22;25547;52.530;13.194;2023-03-12T09:46:27;7.20;79.10
39875;DHT22;25547;52.530;13.194;2023-03-12T09:49:00;7.20;81.10
39875;DHT22;25547;52.530;13.194;2023-03-12T09:51:40;6.90;81.30
39875;DHT22;25547;52.530;13.194;2023-03-12T09:54:20;6.50;82.20
39875;DHT22;25547;52.530;13.194;2023-03-12T09:56:48;6.80;84.10
39875;DHT22;25547;52.530;13.194;2023-03-12T09:59:15;6.90;83.10
39875;DHT22;25547;52.530;13.194;2023-03-12T10:01:46;7.10;83.30
39875;DHT22;25547;52.530;13.194;2023-03-12T10:04:36;7.30;82.50
39875;DHT22;25547;52.530;13.194;2023-03-12T10:07:22;7.50;82.50
39875;DHT22;25547;52.530;13.194;2023-03-12T10:21:12;7.60;80.10
39875;DHT22;25547;52.530;13.194;2023-03-12T10:24:29;7.50;80.00
39875;DHT22;25547;52.530;13.194;2023-03-12T10:27:00;7.30;79.60
39875;DHT22;25547;52.530;13.194;2023-03-12T10:34:39;7.50;80.00
39875;DHT22;25547;52.530;13.194;2023-03-12T10:37:18;7.70;80.00
39875;DHT22;25547;52.530;13.194;2023-03-12T10:39:45;7.50;79.50
39875;DHT22;25547;52.530;13.194;2023-03-12T10:42:17;7.40;79.50
39875;DHT22;25547;52.530;13.194;2023-03-12T10:44:48;7.30;80.20
39875;DHT22;25547;52.530;13.194;2023-03-12T10:47:29;7.10;80.50
39875;DHT22;25547;52.530;13.194;2023-03-12T10:50:23;7.20;82.10
39875;DHT22;25547;52.530;13.194;2023-03-12T10:52:51;7.20;81.50
39875;DHT22;25547;52.530;13.194;2023-03-12T10:55:24;7.20;83.30
39875;DHT22;25547;52.530;13.194;2023-03-12T10:57:52;7.30;81.60
39875;DHT22;25547;52.530;13.194;2023-03-12T11:00:29;7.50;81.60
39875;DHT22;25547;52.530;13.194;2023-03-12T11:03:00;7.40;79.10
39875;DHT22;25547;52.530;13.194;2023-03-12T11:05:49;7.40;80.50
39875;DHT22;25547;52.530;13.194;2023-03-12T11:08:22;7.50;79.40
39875;DHT22;25547;52.530;13.194;2023-03-12T11:10:48;7.60;79.10
39875;DHT22;25547;52.530;13.194;2023-03-12T11:15:52;7.40;80.50
39875;DHT22;25547;52.530;13.194;2023-03-12T11:20:49;7.30;79.20
39875;DHT22;25547;52.530;13.194;2023-03-12T11:23:38;7.10;76.60
39875;DHT22;25547;52.530;13.194;2023-03-12T11:26:17;7.20;78.40
39875;DHT22;25547;52.530;13.194;2023-03-12T11:28:49;7.20;78.00
39875;DHT22;25547;52.530;13.194;2023-03-12T11:33:56;7.10;78.00
39875;DHT22;25547;52.530;13.194;2023-03-12T11:39:37;6.90;77.30
39875;DHT22;25547;52.530;13.194;2023-03-12T11:50:17;6.90;77.70
39875;DHT22;25547;52.530;13.194;2023-03-12T11:55:52;7.00;76.00
39875;DHT22;25547;52.530;13.194;2023-03-12T12:01:23;7.30;76.70
39875;DHT22;25547;52.530;13.194;2023-03-12T12:19:46;7.20;73.20
39875;DHT22;25547;52.530;13.194;2023-03-12T12:39:39;7.60;63.40
39875;DHT22;25547;52.530;13.194;2023-03-12T12:42:07;7.50;63.00
39875;DHT22;25547;52.530;13.194;2023-03-12T12:44:42;7.40;64.90
39875;DHT22;25547;52.530;13.194;2023-03-12T12:47:15;7.40;66.70
39875;DHT22;25547;52.530;13.194;2023-03-12T12:49:45;7.30;62.80
39875;DHT22;25547;52.530;13.194;2023-03-12T12:52:19;7.40;62.70
39875;DHT22;25547;52.530;13.194;2023-03-12T13:00:09;7.20;61.20
39875;DHT22;25547;52.530;13.194;2023-03-12T13:02:43;7.10;62.20
39875;DHT22;25547;52.530;13.194;2023-03-12T13:05:16;7.10;62.00
39875;DHT22;25547;52.530;13.194;2023-03-12T13:07:42;7.00;62.00
39875;DHT22;25547;52.530;13.194;2023-03-12T13:10:37;7.10;63.50
39875;DHT22;25547;52.530;13.194;2023-03-12T13:13:12;7.20;64.00
39875;DHT22;25547;52.530;13.194;2023-03-12T13:15:42;7.00;63.50
39875;DHT22;25547;52.530;13.194;2023-03-12T13:28:55;6.90;65.90
39875;DHT22;25547;52.530;13.194;2023-03-12T13:34:26;6.80;64.90
39875;DHT22;25547;52.530;13.194;2023-03-12T13:36:44;6.70;64.20
39875;DHT22;25547;52.530;13.194;2023-03-12T13:49:40;6.70;66.90
39875;DHT22;25547;52.530;13.194;2023-03-12T13:54:40;6.80;65.60
39875;DHT22;25547;52.530;13.194;2023-03-12T13:59:57;6.60;64.90
39875;DHT22;25547;52.530;13.194;2023-03-12T14:02:33;6.60;66.70
39875;DHT22;25547;52.530;13.194;2023-03-12T14:05:08;6.50;67.20
39875;DHT22;25547;52.530;13.194;2023-03-12T14:18:26;6.30;67.90
39875;DHT22;25547;52.530;13.194;2023-03-12T14:20:58;6.30;68.00
39875;DHT22;25547;52.530;13.194;2023-03-12T14:23:35;6.30;68.10
39875;DHT22;25547;52.530;13.194;2023-03-12T14:26:03;6.30;68.40
39875;DHT22;25547;52.530;13.194;2023-03-12T14:28:39;6.30;68.00
39875;DHT22;25547;52.530;13.194;2023-03-12T14:31:18;6.30;69.30
39875;DHT22;25547;52.530;13.194;2023-03-12T14:33:51;6.30;69.40
39875;DHT22;25547;52.530;13.194;2023-03-12T14:36:23;6.30;69.50
39875;DHT22;25547;52.530;13.194;2023-03-12T14:38:57;6.10;68.80
39875;DHT22;25547;52.530;13.194;2023-03-12T14:41:31;6.20;70.60
39875;DHT22;25547;52.530;13.194;2023-03-12T14:44:24;6.20;71.00
39875;DHT22;25547;52.530;13.194;2023-03-12T14:47:00;6.20;71.10
39875;DHT22;25547;52.530;13.194;2023-03-12T14:49:27;6.10;70.60
39875;DHT22;25547;52.530;13.194;2023-03-12T14:51:54;6.30;71.60
39875;DHT22;25547;52.530;13.194;2023-03-12T14:54:22;6.20;71.70
39875;DHT22;25547;52.530;13.194;2023-03-12T14:56:49;6.10;72.30
39875;DHT22;25547;52.530;13.194;2023-03-12T15:02:09;6.00;73.80
39875;DHT22;25547;52.530;13.194;2023-03-12T15:04:36;6.00;74.90
39875;DHT22;25547;52.530;13.194;2023-03-12T15:07:05;5.90;75.60
39875;DHT22;25547;52.530;13.194;2023-03-12T15:09:34;5.90;76.40
39875;DHT22;25547;52.530;13.194;2023-03-12T15:12:03;5.80;76.70
39875;DHT22;25547;52.530;13.194;2023-03-12T15:14:36;5.80;77.50
39875;DHT22;25547;52.530;13.194;2023-03-12T15:17:04;5.90;78.00
39875;DHT22;25547;52.530;13.194;2023-03-12T15:19:40;5.90;77.90
39875;DHT22;25547;52.530;13.194;2023-03-12T15:22:17;5.80;78.60
39875;DHT22;25547;52.530;13.194;2023-03-12T15:24:46;5.70;78.10
39875;DHT22;25547;52.530;13.194;2023-03-12T15:29:50;5.70;77.80
39875;DHT22;25547;52.530;13.194;2023-03-12T15:32:20;5.80;78.00
39875;DHT22;25547;52.530;13.194;2023-03-12T15:34:47;5.90;78.20
39875;DHT22;25547;52.530;13.194;2023-03-12T15:40:23;5.80;79.00
39875;DHT22;25547;52.530;13.194;2023-03-12T15:42:50;5.70;79.80
39875;DHT22;25547;52.530;13.194;2023-03-12T15:48:00;5.70;82.10
39875;DHT22;25547;52.530;13.194;2023-03-12T15:50:42;5.70;82.40
39875;DHT22;25547;52.530;13.194;2023-03-12T15:55:44;5.80;82.60
39875;DHT22;25547;52.530;13.194;2023-03-12T15:58:36;5.80;83.10
39875;DHT22;25547;52.530;13.194;2023-03-12T16:01:14;5.70;83.40
39875;DHT22;25547;52.530;13.194;2023-03-12T16:03:44;5.70;84.50
39875;DHT22;25547;52.530;13.194;2023-03-12T16:06:28;5.70;83.70
39875;DHT22;25547;52.530;13.194;2023-03-12T16:08:59;5.70;85.40
39875;DHT22;25547;52.530;13.194;2023-03-12T16:11:26;5.50;85.80
39875;DHT22;25547;52.530;13.194;2023-03-12T16:14:01;5.60;87.00
39875;DHT22;25547;52.530;13.194;2023-03-12T16:16:28;5.50;87.40
39875;DHT22;25547;52.530;13.194;2023-03-12T16:18:53;5.40;89.00
39875;DHT22;25547;52.530;13.194;2023-03-12T16:21:19;5.30;90.40
39875;DHT22;25547;52.530;13.194;2023-03-12T16:23:45;5.30;91.30
39875;DHT22;25547;52.530;13.194;2023-03-12T16:26:14;5.30;92.20
39875;DHT22;25547;52.530;13.194;2023-03-12T16:28:42;5.30;92.30
39875;DHT22;25547;52.530;13.194;2023-03-12T16:31:15;5.20;93.80
39875;DHT22;25547;52.530;13.194;2023-03-12T16:33:42;5.10;94.80
39875;DHT22;25547;52.530;13.194;2023-03-12T16:36:12;5.00;96.00
39875;DHT22;25547;52.530;13.194;2023-03-12T16:38:38;5.00;97.00
39875;DHT22;25547;52.530;13.194;2023-03-12T16:41:04;4.90;98.20
39875;DHT22;25547;52.530;13.194;2023-03-12T16:43:34;4.90;99.40
39875;DHT22;25547;52.530;13.194;2023-03-12T16:46:01;4.90;99.90
39875;DHT22;25547;52.530;13.194;2023-03-12T16:48:26;5.00;99.90
39875;DHT22;25547;52.530;13.194;2023-03-12T16:50:58;5.00;99.90
39875;DHT22;25547;52.530;13.194;2023-03-12T16:53:24;4.90;99.90
39875;DHT22;25547;52.530;13.194;2023-03-12T16:55:59;5.00;99.90
39875;DHT22;25547;52.530;13.194;2023-03-12T16:58:26;5.00;99.90
39875;DHT22;25547;52.530;13.194;2023-03-12T17:00:53;4.90;99.90
39875;DHT22;25547;52.530;13.194;2023-03-12T17:03:32;4.90;99.90
39875;DHT22;25547;52.530;13.194;2023-03-12T17:06:00;4.90;99.90
39875;DHT22;25547;52.530;13.194;2023-03-12T17:08:28;4.80;99.90
39875;DHT22;25547;52.530;13.194;2023-03-12T17:10:56;4.80;99.90
39875;DHT22;25547;52.530;13.194;2023-03-12T17:13:25;4.80;99.90
39875;DHT22;25547;52.530;13.194;2023-03-12T17:15:51;4.90;99.90
39875;DHT22;25547;52.530;13.194;2023-03-12T17:18:18;4.80;99.90
39875;DHT22;25547;52.530;13.194;2023-03-12T17:20:44;4.90;99.90
39875;DHT22;25547;52.530;13.194;2023-03-12T17:23:10;4.90;99.90
39875;DHT22;25547;52.530;13.194;2023-03-12T17:25:40;4.90;99.90
39875;DHT22;25547;52.530;13.194;2023-03-12T17:28:09;4.90;99.90
39875;DHT22;25547;52.530;13.194;2023-03-12T17:30:35;5.00;99.90
39875;DHT22;25547;52.530;13.194;2023-03-12T17:33:06;5.00;99.90
39875;DHT22;25547;52.530;13.194;2023-03-12T17:35:32;5.10;99.90
39875;DHT22;25547;52.530;13.194;2023-03-12T17:37:58;5.00;99.90
39875;DHT22;25547;52.530;13.194;2023-03-12T17:40:24;5.00;99.90
39875;DHT22;25547;52.530;13.194;2023-03-12T17:42:52;4.80;99.90
39875;DHT22;25547;52.530;13.194;2023-03-12T17:45:21;4.70;99.90
39875;DHT22;25547;52.530;13.194;2023-03-12T17:47:47;4.60;99.90
39875;DHT22;25547;52.530;13.194;2023-03-12T17:50:16;4.60;99.90
39875;DHT22;25547;52.530;13.194;2023-03-12T17:52:42;4.50;99.90
39875;DHT22;25547;52.530;13.194;2023-03-12T17:55:12;4.50;99.90
39875;DHT22;25547;52.530;13.194;2023-03-12T17:57:38;4.50;99.90
39875;DHT22;25547;52.530;13.194;2023-03-12T18:00:04;4.40;99.90
39875;DHT22;25547;52.530;13.194;2023-03-12T18:02:37;4.40;99.90